Time;durP1;ratioP1;P1;durP2;ratioP2;P2;SDS_P1;SDS_P2;PMS_P1;PMS_P2;Temp;Humidity;BMP_temperature;BMP_pressure;BME280_temperature;BME280_humidity;BME280_pressure;Samples;Min_cycle;Max_cycle;Signal;HPM_P1;HPM_P2
2021/04/18 00:01:25;;;;;;;6.63;4.50;;;;;;;;;;5035687;28;20056;-47
2021/04/18 00:03:52;;;;;;;5.25;4.40;;;;;;;;;;5035378;28;20367;-47
2021/04/18 00:06:20;;;;;;;5.55;4.68;;;;;;;;;;5049704;28;20052;-47
2021/04/18 00:08:48;;;;;;;6.07;5.47;;;;;;;;;;5035534;28;20048;-47
2021/04/18 00:11:16;;;;;;;7.10;5.07;;;;;;;;;;5035489;28;20049;-46
2021/04/18 00:13:45;;;;;;;6.97;5.38;;;;;;;;;;5035271;28;20045;-45
2021/04/18 00:16:14;;;;;;;7.53;5.60;;;;;;;;;;5050241;28;20045;-45
2021/04/18 00:18:41;;;;;;;7.38;5.38;;;;;;;;;;5053827;28;20250;-45
2021/04/18 00:21:08;;;;;;;6.47;5.45;;;;;;;;;;5035538;28;20112;-46
2021/04/18 00:23:34;;;;;;;6.55;4.88;;;;;;;;;;5054520;28;20056;-46
2021/04/18 00:26:01;;;;;;;7.60;5.70;;;;;;;;;;5053323;28;20052;-46
2021/04/18 00:28:30;;;;;;;6.95;5.40;;;;;;;;;;5035270;28;20057;-46
2021/04/18 00:30:58;;;;;;;7.00;6.30;;;;;;;;;;5035180;28;20053;-46
2021/04/18 00:33:25;;;;;;;10.52;7.65;;;;;;;;;;5035148;28;20049;-45
2021/04/18 00:35:52;;;;;;;9.00;6.88;;;;;;;;;;5047011;28;20052;-46
2021/04/18 00:38:19;;;;;;;9.35;7.10;;;;;;;;;;5036871;28;20041;-47
2021/04/18 00:40:46;;;;;;;8.77;7.03;;;;;;;;;;5035117;28;20048;-46
2021/04/18 00:43:13;;;;;;;9.13;7.22;;;;;;;;;;5035063;28;20041;-47
2021/04/18 00:45:40;;;;;;;11.27;7.70;;;;;;;;;;5036654;28;20380;-46
2021/04/18 00:48:07;;;;;;;10.05;7.60;;;;;;;;;;5035067;28;20056;-47
2021/04/18 00:50:35;;;;;;;11.38;8.68;;;;;;;;;;5035035;28;20038;-47
2021/04/18 00:53:04;;;;;;;9.82;8.02;;;;;;;;;;5034923;28;20045;-47
2021/04/18 00:55:32;;;;;;;13.75;8.98;;;;;;;;;;5043127;28;20049;-47
2021/04/18 00:57:59;;;;;;;10.85;8.13;;;;;;;;;;5054688;28;20045;-47
2021/04/18 01:00:27;;;;;;;10.45;8.65;;;;;;;;;;5054979;28;20045;-48
2021/04/18 01:02:54;;;;;;;12.07;7.90;;;;;;;;;;5037558;28;20045;-47
2021/04/18 01:05:22;;;;;;;9.57;8.35;;;;;;;;;;5017690;28;20041;-45
2021/04/18 01:07:49;;;;;;;11.32;9.15;;;;;;;;;;5025409;28;20360;-49
2021/04/18 01:10:17;;;;;;;11.57;9.48;;;;;;;;;;5054230;28;20040;-46
2021/04/18 01:12:44;;;;;;;9.38;7.97;;;;;;;;;;5040783;28;20537;-46
2021/04/18 01:15:12;;;;;;;9.30;8.15;;;;;;;;;;5058120;28;20352;-46
2021/04/18 01:17:39;;;;;;;11.20;9.13;;;;;;;;;;5058612;28;20040;-46
2021/04/18 01:20:10;;;;;;;10.00;8.55;;;;;;;;;;5040871;28;20043;-47
2021/04/18 01:22:37;;;;;;;10.40;8.68;;;;;;;;;;5058790;28;20045;-47
2021/04/18 01:25:31;;;;;;;11.00;8.95;;;;;;;;;;5055605;28;20049;-46
2021/04/18 01:28:14;;;;;;;11.20;8.73;;;;;;;;;;5058255;28;20061;-46
2021/04/18 01:30:42;;;;;;;10.48;8.35;;;;;;;;;;5040675;28;20056;-46
2021/04/18 01:33:10;;;;;;;11.18;8.88;;;;;;;;;;5038162;28;20064;-47
2021/04/18 01:35:37;;;;;;;9.95;8.10;;;;;;;;;;5046085;28;20352;-46
2021/04/18 01:38:05;;;;;;;11.10;8.65;;;;;;;;;;5041651;28;20037;-46
2021/04/18 01:40:33;;;;;;;10.32;8.52;;;;;;;;;;5021037;28;20045;-46
2021/04/18 01:43:00;;;;;;;10.60;8.73;;;;;;;;;;5038123;28;20053;-47
2021/04/18 01:45:29;;;;;;;12.98;9.02;;;;;;;;;;5026779;28;20464;-47
2021/04/18 01:47:59;;;;;;;10.73;8.93;;;;;;;;;;5057966;28;20037;-46
2021/04/18 01:50:27;;;;;;;10.95;9.20;;;;;;;;;;5058027;28;20052;-46
2021/04/18 01:52:54;;;;;;;11.02;7.80;;;;;;;;;;5039270;28;20049;-46
2021/04/18 01:55:20;;;;;;;10.88;9.70;;;;;;;;;;5057668;28;20040;-46
2021/04/18 01:57:49;;;;;;;11.70;9.75;;;;;;;;;;5035489;28;20376;-46
2021/04/18 02:00:40;;;;;;;12.05;9.73;;;;;;;;;;5020537;28;20052;-46
2021/04/18 02:03:07;;;;;;;10.45;8.63;;;;;;;;;;5019533;28;20080;-45
2021/04/18 02:05:40;;;;;;;11.48;9.43;;;;;;;;;;5027423;28;20044;-45
2021/04/18 02:08:17;;;;;;;12.60;9.48;;;;;;;;;;5024598;28;20040;-46
2021/04/18 02:10:44;;;;;;;16.45;9.80;;;;;;;;;;5040092;28;20051;-47
2021/04/18 02:13:14;;;;;;;12.45;9.88;;;;;;;;;;5031243;28;20368;-47
2021/04/18 02:16:13;;;;;;;13.80;10.25;;;;;;;;;;4994486;28;20041;-47
2021/04/18 02:18:49;;;;;;;11.77;9.40;;;;;;;;;;5039867;28;20044;-47
2021/04/18 02:21:17;;;;;;;10.30;8.45;;;;;;;;;;5055348;28;20055;-46
2021/04/18 02:23:44;;;;;;;12.20;9.77;;;;;;;;;;5037263;28;20463;-47
2021/04/18 02:26:11;;;;;;;14.15;9.38;;;;;;;;;;5048134;28;20049;-46
2021/04/18 02:28:42;;;;;;;13.80;10.50;;;;;;;;;;5056288;28;20055;-47
2021/04/18 02:31:11;;;;;;;12.80;9.90;;;;;;;;;;5057533;28;20071;-47
2021/04/18 02:33:42;;;;;;;12.27;9.88;;;;;;;;;;5056090;28;20049;-46
2021/04/18 02:36:09;;;;;;;13.30;9.77;;;;;;;;;;5075295;28;20371;-46
2021/04/18 02:38:37;;;;;;;10.73;9.13;;;;;;;;;;5057091;28;20037;-45
2021/04/18 02:41:12;;;;;;;14.35;9.85;;;;;;;;;;5056127;28;20048;-46
2021/04/18 02:43:39;;;;;;;12.27;9.23;;;;;;;;;;5056871;28;20037;-47
2021/04/18 02:46:06;;;;;;;11.80;10.20;;;;;;;;;;5065245;28;20043;-47
2021/04/18 02:48:33;;;;;;;12.60;9.98;;;;;;;;;;5067211;28;20045;-47
2021/04/18 02:51:00;;;;;;;12.10;10.07;;;;;;;;;;5057096;28;20041;-47
2021/04/18 02:53:27;;;;;;;13.60;10.10;;;;;;;;;;5055714;28;20040;-48
2021/04/18 02:55:55;;;;;;;15.95;10.18;;;;;;;;;;5063553;28;20048;-48
2021/04/18 02:58:32;;;;;;;13.18;10.40;;;;;;;;;;5056712;28;20056;-45
2021/04/18 03:00:59;;;;;;;11.85;9.05;;;;;;;;;;5056719;28;20033;-48
2021/04/18 03:03:26;;;;;;;13.43;10.52;;;;;;;;;;5055419;28;20040;-47
2021/04/18 03:05:53;;;;;;;13.73;11.05;;;;;;;;;;5063683;28;20067;-46
2021/04/18 03:08:20;;;;;;;13.48;10.15;;;;;;;;;;5057716;28;20371;-45
2021/04/18 03:10:48;;;;;;;14.30;10.60;;;;;;;;;;5055556;28;20336;-47
2021/04/18 03:13:20;;;;;;;13.38;10.23;;;;;;;;;;5056387;28;20048;-46
2021/04/18 03:15:48;;;;;;;12.05;9.65;;;;;;;;;;5062569;28;20043;-47
2021/04/18 03:18:15;;;;;;;15.77;10.57;;;;;;;;;;5065232;28;20048;-46
2021/04/18 03:20:43;;;;;;;14.82;11.30;;;;;;;;;;5055286;28;20355;-46
2021/04/18 03:23:10;;;;;;;12.73;10.07;;;;;;;;;;5056269;28;20412;-47
2021/04/18 03:25:38;;;;;;;14.85;11.50;;;;;;;;;;5059628;28;20359;-47
2021/04/18 03:28:10;;;;;;;13.90;11.15;;;;;;;;;;5051470;28;20049;-45
2021/04/18 03:30:41;;;;;;;15.38;11.25;;;;;;;;;;5036175;28;20041;-46
2021/04/18 03:33:12;;;;;;;16.38;12.48;;;;;;;;;;5017985;28;20049;-47
2021/04/18 03:35:40;;;;;;;14.75;11.73;;;;;;;;;;5022767;28;20048;-45
2021/04/18 03:38:11;;;;;;;15.23;12.88;;;;;;;;;;5038690;28;20445;-46
2021/04/18 03:40:41;;;;;;;18.52;12.48;;;;;;;;;;5018597;28;20045;-46
2021/04/18 03:43:09;;;;;;;18.42;12.55;;;;;;;;;;5018435;28;20057;-46
2021/04/18 03:45:37;;;;;;;16.50;11.95;;;;;;;;;;5039266;28;20044;-47
2021/04/18 03:48:04;;;;;;;17.27;11.80;;;;;;;;;;5053998;28;20045;-47
2021/04/18 03:50:32;;;;;;;13.32;10.95;;;;;;;;;;5018362;28;20053;-46
2021/04/18 03:53:14;;;;;;;15.80;11.23;;;;;;;;;;5035666;28;20050;-47
2021/04/18 03:55:46;;;;;;;14.90;11.80;;;;;;;;;;5040184;28;20044;-47
2021/04/18 03:58:15;;;;;;;16.60;12.38;;;;;;;;;;5032804;28;20048;-48
2021/04/18 04:00:48;;;;;;;15.93;12.32;;;;;;;;;;5018316;28;20460;-47
2021/04/18 04:03:15;;;;;;;17.38;12.60;;;;;;;;;;5018121;28;20041;-47
2021/04/18 04:05:46;;;;;;;17.08;11.85;;;;;;;;;;5022389;28;20475;-48
2021/04/18 04:08:15;;;;;;;18.08;12.27;;;;;;;;;;5019977;28;20048;-46
2021/04/18 04:10:42;;;;;;;17.40;11.48;;;;;;;;;;5035522;28;20479;-47
2021/04/18 04:13:10;;;;;;;16.83;11.68;;;;;;;;;;5035272;28;20053;-47
2021/04/18 04:15:39;;;;;;;17.20;11.73;;;;;;;;;;5038036;28;20407;-45
2021/04/18 04:18:09;;;;;;;16.30;11.95;;;;;;;;;;5018024;28;20076;-47
2021/04/18 04:21:08;;;;;;;17.05;12.70;;;;;;;;;;5002181;28;20042;-46
2021/04/18 04:23:35;;;;;;;16.73;11.98;;;;;;;;;;5035287;28;20048;-46
2021/04/18 04:26:03;;;;;;;16.05;11.98;;;;;;;;;;5040974;28;20063;-47
2021/04/18 04:28:29;;;;;;;17.25;12.15;;;;;;;;;;5048780;28;20068;-46
2021/04/18 04:30:56;;;;;;;15.90;12.45;;;;;;;;;;5035279;28;20056;-46
2021/04/18 04:33:23;;;;;;;14.95;12.27;;;;;;;;;;5034510;28;20049;-47
2021/04/18 04:35:50;;;;;;;17.80;12.38;;;;;;;;;;5039044;28;20050;-50
2021/04/18 04:38:17;;;;;;;14.95;11.75;;;;;;;;;;5036920;28;20056;-47
2021/04/18 04:40:43;;;;;;;16.90;12.45;;;;;;;;;;5035239;28;20364;-46
2021/04/18 04:43:10;;;;;;;15.30;11.23;;;;;;;;;;5035134;28;20046;-47
2021/04/18 04:45:37;;;;;;;16.42;12.25;;;;;;;;;;5038945;28;20052;-46
2021/04/18 04:48:04;;;;;;;14.43;11.95;;;;;;;;;;5053702;28;20049;-46
2021/04/18 04:50:31;;;;;;;15.65;12.20;;;;;;;;;;5021768;28;20041;-46
2021/04/18 04:52:58;;;;;;;13.73;10.93;;;;;;;;;;5038947;28;20049;-46
2021/04/18 04:55:25;;;;;;;16.52;12.40;;;;;;;;;;5039121;28;20447;-46
2021/04/18 04:57:51;;;;;;;13.63;10.52;;;;;;;;;;5038947;28;20048;-46
2021/04/18 05:00:18;;;;;;;14.68;11.15;;;;;;;;;;5038916;28;20436;-46
2021/04/18 05:02:45;;;;;;;14.48;11.10;;;;;;;;;;5038853;28;20049;-47
2021/04/18 05:05:12;;;;;;;16.75;10.23;;;;;;;;;;5038969;28;20064;-46
2021/04/18 05:07:39;;;;;;;15.65;11.15;;;;;;;;;;5043856;28;20053;-46
2021/04/18 05:10:06;;;;;;;15.60;11.30;;;;;;;;;;5038891;28;20052;-48
2021/04/18 05:12:33;;;;;;;11.52;9.77;;;;;;;;;;5045719;28;20037;-47
2021/04/18 05:15:00;;;;;;;12.90;9.77;;;;;;;;;;5058562;28;20463;-46
2021/04/18 05:17:28;;;;;;;14.55;9.55;;;;;;;;;;5048944;28;20360;-49
2021/04/18 05:19:55;;;;;;;13.25;8.70;;;;;;;;;;5038692;28;20044;-47
2021/04/18 05:22:22;;;;;;;12.35;9.02;;;;;;;;;;5038591;28;20049;-46
2021/04/18 05:24:48;;;;;;;11.55;8.55;;;;;;;;;;5052777;28;20036;-45
2021/04/18 05:27:15;;;;;;;13.02;9.32;;;;;;;;;;5040113;28;20046;-46
2021/04/18 05:29:42;;;;;;;11.63;9.23;;;;;;;;;;5038580;28;20057;-46
2021/04/18 05:32:09;;;;;;;10.90;8.27;;;;;;;;;;5038516;28;20052;-47
2021/04/18 05:34:36;;;;;;;11.90;8.25;;;;;;;;;;5050737;28;20044;-47
2021/04/18 05:37:04;;;;;;;11.68;8.40;;;;;;;;;;5050625;28;20049;-47
2021/04/18 05:39:31;;;;;;;14.40;8.70;;;;;;;;;;5038223;28;20372;-46
2021/04/18 05:41:58;;;;;;;13.00;8.48;;;;;;;;;;5038332;28;20559;-45
2021/04/18 05:44:25;;;;;;;10.73;8.07;;;;;;;;;;5048413;28;20037;-48
2021/04/18 05:46:51;;;;;;;9.52;7.68;;;;;;;;;;5058547;28;20048;-46
2021/04/18 05:49:18;;;;;;;12.10;8.75;;;;;;;;;;5058096;28;20052;-47
2021/04/18 05:51:45;;;;;;;11.75;8.52;;;;;;;;;;5057939;28;20051;-48
2021/04/18 05:54:12;;;;;;;11.43;8.00;;;;;;;;;;5057043;28;20047;-47
2021/04/18 05:56:39;;;;;;;11.77;8.30;;;;;;;;;;5037255;28;20034;-47
2021/04/18 05:59:06;;;;;;;13.98;8.95;;;;;;;;;;5037881;28;20445;-47
2021/04/18 06:01:33;;;;;;;11.25;8.35;;;;;;;;;;5037921;28;20053;-48
2021/04/18 06:04:00;;;;;;;10.77;8.48;;;;;;;;;;5043917;28;20052;-46
2021/04/18 06:06:27;;;;;;;10.20;8.63;;;;;;;;;;5054635;28;20041;-54
2021/04/18 06:08:54;;;;;;;15.63;10.55;;;;;;;;;;5037699;28;20041;-47
2021/04/18 06:11:21;;;;;;;13.60;9.18;;;;;;;;;;5037733;28;20337;-46
2021/04/18 06:13:49;;;;;;;10.57;8.68;;;;;;;;;;5041851;28;20348;-48
2021/04/18 06:16:16;;;;;;;11.55;10.23;;;;;;;;;;5040068;28;20037;-46
2021/04/18 06:18:45;;;;;;;13.13;10.07;;;;;;;;;;5037623;28;20046;-47
2021/04/18 06:21:13;;;;;;;12.88;10.00;;;;;;;;;;5037484;28;20045;-47
2021/04/18 06:23:40;;;;;;;13.68;10.13;;;;;;;;;;5040440;28;20355;-46
2021/04/18 06:26:08;;;;;;;11.23;8.93;;;;;;;;;;5041262;28;20433;-49
2021/04/18 06:28:34;;;;;;;10.35;8.35;;;;;;;;;;5037265;28;20056;-47
2021/04/18 06:31:01;;;;;;;12.30;8.93;;;;;;;;;;5037418;28;20042;-45
2021/04/18 06:33:28;;;;;;;11.60;8.63;;;;;;;;;;5038172;28;20045;-47
2021/04/18 06:35:55;;;;;;;11.25;8.98;;;;;;;;;;5057209;28;20040;-47
2021/04/18 06:38:22;;;;;;;13.07;9.30;;;;;;;;;;5038260;28;20475;-45
2021/04/18 06:40:51;;;;;;;13.88;9.05;;;;;;;;;;5019686;28;20029;-46
2021/04/18 06:43:19;;;;;;;10.38;8.63;;;;;;;;;;5036380;28;20042;-46
2021/04/18 06:45:49;;;;;;;11.18;9.10;;;;;;;;;;5036592;28;20049;-47
2021/04/18 06:48:16;;;;;;;13.20;8.90;;;;;;;;;;5037028;28;20364;-46
2021/04/18 06:50:43;;;;;;;11.85;9.20;;;;;;;;;;5036929;28;20048;-46
2021/04/18 06:53:09;;;;;;;10.63;9.00;;;;;;;;;;5036017;28;20049;-47
2021/04/18 06:55:37;;;;;;;11.10;8.48;;;;;;;;;;5054920;28;20044;-47
2021/04/18 06:58:04;;;;;;;10.80;8.43;;;;;;;;;;5056494;28;20352;-47
2021/04/18 07:00:32;;;;;;;12.90;8.80;;;;;;;;;;5056782;28;20037;-46
2021/04/18 07:03:15;;;;;;;9.70;7.97;;;;;;;;;;5053752;28;20052;-47
2021/04/18 07:05:42;;;;;;;;;;;;;;;;;;5034930;28;20048;-47
2021/04/18 07:08:25;;;;;;;9.73;8.32;;;;;;;;;;5035503;28;19916;-46
2021/04/18 07:10:52;;;;;;;11.80;8.30;;;;;;;;;;5036623;28;20046;-48
2021/04/18 07:13:20;;;;;;;10.45;7.97;;;;;;;;;;5036359;28;20064;-47
2021/04/18 07:15:48;;;;;;;11.30;8.52;;;;;;;;;;5040482;28;20033;-47
2021/04/18 07:18:35;;;;;;;10.68;9.15;;;;;;;;;;5036384;28;20053;-47
2021/04/18 07:21:02;;;;;;;12.30;8.07;;;;;;;;;;5018978;28;20372;-46
2021/04/18 07:23:30;;;;;;;11.43;8.23;;;;;;;;;;5036251;28;20041;-47
2021/04/18 07:25:58;;;;;;;11.77;8.18;;;;;;;;;;5036440;28;20440;-46
2021/04/18 07:28:26;;;;;;;9.40;8.00;;;;;;;;;;5036223;28;20057;-47
2021/04/18 07:31:02;;;;;;;10.48;9.05;;;;;;;;;;5036298;28;20053;-47
2021/04/18 07:33:29;;;;;;;11.73;8.57;;;;;;;;;;5035941;28;20056;-47
2021/04/18 07:35:57;;;;;;;12.77;9.25;;;;;;;;;;5055565;28;20036;-49
2021/04/18 07:38:25;;;;;;;11.82;9.18;;;;;;;;;;5036911;28;20045;-48
2021/04/18 07:40:54;;;;;;;11.15;8.52;;;;;;;;;;5035904;28;20044;-46
2021/04/18 07:43:21;;;;;;;12.85;9.30;;;;;;;;;;5035924;28;20039;-46
2021/04/18 07:45:49;;;;;;;12.73;9.23;;;;;;;;;;5054001;28;20048;-46
2021/04/18 07:48:17;;;;;;;11.15;9.95;;;;;;;;;;5055749;28;20044;-48
2021/04/18 07:50:45;;;;;;;13.68;10.18;;;;;;;;;;5055586;28;20044;-47
2021/04/18 07:53:15;;;;;;;13.07;10.40;;;;;;;;;;5055568;28;20040;-48
2021/04/18 07:55:42;;;;;;;15.20;11.55;;;;;;;;;;5055459;28;20044;-48
2021/04/18 07:58:10;;;;;;;15.27;10.15;;;;;;;;;;5055463;28;20470;-46
2021/04/18 08:00:37;;;;;;;13.82;10.20;;;;;;;;;;5055583;28;20037;-46
2021/04/18 08:03:04;;;;;;;13.45;10.52;;;;;;;;;;5055481;28;20435;-48
2021/04/18 08:05:32;;;;;;;14.45;10.82;;;;;;;;;;5055395;28;20053;-47
2021/04/18 08:08:05;;;;;;;12.60;10.57;;;;;;;;;;5039570;28;20049;-46
2021/04/18 08:10:38;;;;;;;13.02;11.00;;;;;;;;;;5035548;28;20049;-47
2021/04/18 08:13:11;;;;;;;13.90;10.73;;;;;;;;;;5035383;28;20052;-48
2021/04/18 08:15:43;;;;;;;14.43;11.18;;;;;;;;;;5051297;28;20041;-47
2021/04/18 08:18:14;;;;;;;14.55;10.93;;;;;;;;;;5054437;28;20044;-46
2021/04/18 08:20:45;;;;;;;14.75;11.27;;;;;;;;;;5035692;28;20049;-47
2021/04/18 08:23:13;;;;;;;15.70;11.70;;;;;;;;;;5035307;28;20364;-48
2021/04/18 08:25:59;;;;;;;15.05;11.90;;;;;;;;;;5051099;28;20371;-47
2021/04/18 08:28:26;;;;;;;15.75;11.60;;;;;;;;;;5055096;28;20057;-48
2021/04/18 08:30:59;;;;;;;15.32;12.40;;;;;;;;;;5040265;28;20068;-48
2021/04/18 08:33:46;;;;;;;15.50;12.15;;;;;;;;;;5035046;28;20432;-47
2021/04/18 08:36:17;;;;;;;15.45;12.82;;;;;;;;;;5034955;28;20045;-47
2021/04/18 08:38:45;;;;;;;14.05;11.52;;;;;;;;;;5035181;28;20048;-48
2021/04/18 08:41:16;;;;;;;14.27;12.40;;;;;;;;;;5035417;28;20049;-46
2021/04/18 08:43:44;;;;;;;16.95;13.30;;;;;;;;;;5035053;28;20046;-47
2021/04/18 08:46:11;;;;;;;18.73;15.05;;;;;;;;;;5054475;28;20045;-47
2021/04/18 08:48:44;;;;;;;18.00;14.52;;;;;;;;;;5048185;28;20037;-47
2021/04/18 08:51:11;;;;;;;16.55;13.85;;;;;;;;;;5035115;28;20052;-46
2021/04/18 08:53:53;;;;;;;17.83;14.25;;;;;;;;;;5034863;28;20322;-46
2021/04/18 08:56:20;;;;;;;16.63;14.02;;;;;;;;;;5035064;28;20044;-46
2021/04/18 08:58:46;;;;;;;19.50;14.52;;;;;;;;;;5035042;28;20352;-49
2021/04/18 09:01:14;;;;;;;16.45;13.73;;;;;;;;;;5035113;28;20050;-47
2021/04/18 09:04:00;;;;;;;17.95;13.57;;;;;;;;;;5034925;28;20042;-46
2021/04/18 09:06:32;;;;;;;17.25;13.73;;;;;;;;;;5017277;28;20041;-47
2021/04/18 09:08:59;;;;;;;18.77;13.40;;;;;;;;;;5034941;28;20053;-47
2021/04/18 09:11:26;;;;;;;17.15;13.40;;;;;;;;;;5034923;28;20063;-48
2021/04/18 09:13:57;;;;;;;15.80;12.57;;;;;;;;;;5034816;28;20052;-46
2021/04/18 09:16:25;;;;;;;16.10;12.77;;;;;;;;;;5034943;28;20045;-47
2021/04/18 09:19:18;;;;;;;15.48;12.88;;;;;;;;;;5034839;28;20439;-48
2021/04/18 09:22:21;;;;;;;18.25;14.32;;;;;;;;;;5017390;28;20325;-46
2021/04/18 09:24:59;;;;;;;18.52;14.30;;;;;;;;;;4948841;28;20053;-47
2021/04/18 09:27:27;;;;;;;21.20;15.85;;;;;;;;;;5027526;28;20041;-48
2021/04/18 09:29:55;;;;;;;20.20;16.48;;;;;;;;;;5034848;28;20069;-47
2021/04/18 09:32:23;;;;;;;24.05;18.52;;;;;;;;;;5036114;28;20048;-49
2021/04/18 09:34:50;;;;;;;27.45;19.08;;;;;;;;;;5045103;28;20048;-46
2021/04/18 09:37:29;;;;;;;24.50;19.67;;;;;;;;;;5048319;28;20045;-45
2021/04/18 09:40:00;;;;;;;24.67;19.50;;;;;;;;;;5038401;28;20052;-47
2021/04/18 09:42:28;;;;;;;26.08;19.60;;;;;;;;;;5038144;28;20044;-48
2021/04/18 09:45:06;;;;;;;27.45;21.40;;;;;;;;;;5045334;28;20037;-47
2021/04/18 09:47:34;;;;;;;93.05;52.00;;;;;;;;;;5057012;28;20052;-46
2021/04/18 09:50:23;;;;;;;41.03;26.08;;;;;;;;;;5057975;28;20053;-47
2021/04/18 09:52:50;;;;;;;32.92;25.10;;;;;;;;;;5057869;28;20419;-47
2021/04/18 09:55:22;;;;;;;26.10;19.17;;;;;;;;;;5057732;28;20041;-46
2021/04/18 09:57:53;;;;;;;19.75;16.38;;;;;;;;;;5057850;28;20041;-47
2021/04/18 10:00:20;;;;;;;20.83;16.92;;;;;;;;;;5057849;28;20383;-47
2021/04/18 10:03:00;;;;;;;22.73;17.92;;;;;;;;;;5057795;28;20041;-47
2021/04/18 10:05:27;;;;;;;21.88;17.08;;;;;;;;;;5055591;28;20040;-47
2021/04/18 10:08:12;;;;;;;27.67;21.30;;;;;;;;;;5054956;28;20431;-47
2021/04/18 10:10:39;;;;;;;23.98;18.05;;;;;;;;;;5057682;28;20044;-46
2021/04/18 10:13:06;;;;;;;24.88;18.42;;;;;;;;;;5057493;28;20044;-47
2021/04/18 10:15:33;;;;;;;24.42;18.17;;;;;;;;;;5057697;28;20044;-51
2021/04/18 10:18:17;;;;;;;23.20;18.50;;;;;;;;;;5039642;28;20041;-48
2021/04/18 10:20:44;;;;;;;26.45;18.80;;;;;;;;;;5057542;28;20063;-47
2021/04/18 10:23:11;;;;;;;22.83;17.73;;;;;;;;;;5056222;28;20040;-46
2021/04/18 10:25:39;;;;;;;23.35;19.67;;;;;;;;;;5057485;28;20490;-47
2021/04/18 10:28:06;;;;;;;25.13;19.48;;;;;;;;;;5056858;28;20061;-47
2021/04/18 10:30:41;;;;;;;25.15;18.30;;;;;;;;;;5056539;28;20059;-48
2021/04/18 10:33:08;;;;;;;25.50;20.25;;;;;;;;;;5055935;28;20048;-47
2021/04/18 10:35:35;;;;;;;24.13;19.55;;;;;;;;;;5037310;28;20045;-48
2021/04/18 10:38:02;;;;;;;23.48;18.98;;;;;;;;;;5043661;28;20360;-47
2021/04/18 10:40:29;;;;;;;29.08;23.25;;;;;;;;;;5037278;28;20052;-46
2021/04/18 10:42:56;;;;;;;53.20;40.10;;;;;;;;;;5036765;28;20037;-48
2021/04/18 10:45:32;;;;;;;33.03;24.73;;;;;;;;;;5037125;28;20364;-47
2021/04/18 10:47:59;;;;;;;25.17;19.13;;;;;;;;;;5048726;28;20041;-47
2021/04/18 10:50:26;;;;;;;28.75;19.65;;;;;;;;;;5056974;28;20427;-46
2021/04/18 10:52:52;;;;;;;27.65;19.27;;;;;;;;;;5056803;28;20025;-49
2021/04/18 10:55:19;;;;;;;26.20;20.05;;;;;;;;;;5056875;28;20045;-46
2021/04/18 10:57:46;;;;;;;27.58;20.52;;;;;;;;;;5056003;28;20052;-47
2021/04/18 11:00:13;;;;;;;27.70;21.88;;;;;;;;;;5056721;28;20067;-47
2021/04/18 11:02:40;;;;;;;25.92;21.15;;;;;;;;;;5056668;28;20041;-47
2021/04/18 11:05:11;;;;;;;32.97;22.30;;;;;;;;;;5056760;28;20033;-50
2021/04/18 11:07:45;;;;;;;30.27;22.88;;;;;;;;;;5052024;28;20440;-48
2021/04/18 11:10:12;;;;;;;31.15;22.70;;;;;;;;;;5038897;28;20047;-49
2021/04/18 11:12:42;;;;;;;39.22;31.70;;;;;;;;;;5056374;28;20072;-48
2021/04/18 11:15:09;;;;;;;63.47;44.05;;;;;;;;;;5056330;28;20047;-50
2021/04/18 11:17:39;;;;;;;40.72;31.05;;;;;;;;;;5038636;28;20037;-48
2021/04/18 11:20:08;;;;;;;35.35;24.27;;;;;;;;;;5056383;28;20044;-47
2021/04/18 11:22:38;;;;;;;28.55;21.42;;;;;;;;;;5056090;28;20435;-48
2021/04/18 11:25:08;;;;;;;25.58;20.58;;;;;;;;;;5056209;28;20052;-46
2021/04/18 11:27:35;;;;;;;28.02;20.42;;;;;;;;;;5055733;28;20458;-46
2021/04/18 11:30:10;;;;;;;27.67;21.88;;;;;;;;;;5056162;28;20056;-49
2021/04/18 11:32:37;;;;;;;26.75;20.98;;;;;;;;;;5055322;28;20095;-47
2021/04/18 11:35:08;;;;;;;29.25;20.42;;;;;;;;;;5050630;28;20045;-47
2021/04/18 11:37:35;;;;;;;32.38;25.33;;;;;;;;;;5025463;28;20048;-48
2021/04/18 11:40:15;;;;;;;27.05;21.17;;;;;;;;;;5055404;28;20048;-49
2021/04/18 11:42:45;;;;;;;44.55;32.30;;;;;;;;;;5055949;28;20033;-46
2021/04/18 11:45:14;;;;;;;35.10;26.85;;;;;;;;;;5055893;28;20367;-46
2021/04/18 11:47:42;;;;;;;26.55;21.13;;;;;;;;;;5055647;28;20056;-46
2021/04/18 11:50:09;;;;;;;27.35;19.73;;;;;;;;;;5050331;28;20364;-49
2021/04/18 11:52:50;;;;;;;28.60;20.27;;;;;;;;;;5092815;27;20441;-49
2021/04/18 11:55:18;;;;;;;25.48;19.85;;;;;;;;;;5092926;28;20040;-49
2021/04/18 11:57:45;;;;;;;26.13;20.58;;;;;;;;;;5092593;28;20469;-48
2021/04/18 12:00:12;;;;;;;26.83;21.27;;;;;;;;;;5092752;28;20051;-49
2021/04/18 12:02:39;;;;;;;25.48;19.88;;;;;;;;;;5092638;28;20040;-48
2021/04/18 12:05:07;;;;;;;23.98;19.08;;;;;;;;;;5092760;28;20447;-48
2021/04/18 12:07:33;;;;;;;25.58;18.83;;;;;;;;;;5090686;28;20039;-46
2021/04/18 12:10:00;;;;;;;25.65;19.52;;;;;;;;;;5092608;28;20052;-46
2021/04/18 12:12:30;;;;;;;26.38;18.30;;;;;;;;;;5092551;28;20044;-46
2021/04/18 12:14:57;;;;;;;24.15;18.27;;;;;;;;;;5092684;28;20040;-48
2021/04/18 12:17:24;;;;;;;25.83;18.73;;;;;;;;;;5092276;28;20036;-48
2021/04/18 12:19:50;;;;;;;24.63;19.08;;;;;;;;;;5092632;28;20052;-47
2021/04/18 12:22:17;;;;;;;25.92;18.33;;;;;;;;;;5092009;28;20367;-47
2021/04/18 12:24:44;;;;;;;26.20;19.15;;;;;;;;;;5092190;28;20047;-46
2021/04/18 12:27:11;;;;;;;25.65;19.10;;;;;;;;;;5092120;28;20032;-49
2021/04/18 12:29:38;;;;;;;24.98;18.00;;;;;;;;;;5092256;28;20366;-47
2021/04/18 12:32:05;;;;;;;23.30;17.80;;;;;;;;;;5092025;28;20072;-49
2021/04/18 12:34:32;;;;;;;26.02;19.35;;;;;;;;;;5092133;28;20056;-47
2021/04/18 12:36:58;;;;;;;26.70;19.30;;;;;;;;;;5091598;28;20446;-46
2021/04/18 12:39:25;;;;;;;28.67;20.77;;;;;;;;;;5092120;28;20056;-50
2021/04/18 12:41:52;;;;;;;29.15;21.23;;;;;;;;;;5091854;28;20059;-48
2021/04/18 12:44:19;;;;;;;27.35;19.55;;;;;;;;;;5091946;28;20340;-48
2021/04/18 12:46:46;;;;;;;27.88;19.42;;;;;;;;;;5091957;28;20040;-50
2021/04/18 12:49:13;;;;;;;29.70;19.63;;;;;;;;;;5091682;28;20036;-46
2021/04/18 12:51:39;;;;;;;27.88;18.55;;;;;;;;;;5091841;28;20052;-49
2021/04/18 12:54:07;;;;;;;32.38;19.70;;;;;;;;;;5087019;28;20052;-47
2021/04/18 12:56:35;;;;;;;30.17;19.25;;;;;;;;;;5071261;28;20351;-47
2021/04/18 12:59:03;;;;;;;30.65;19.83;;;;;;;;;;5080747;28;20325;-47
2021/04/18 13:01:29;;;;;;;28.67;18.80;;;;;;;;;;5071273;28;20040;-48
2021/04/18 13:03:56;;;;;;;29.10;19.48;;;;;;;;;;5059222;28;20356;-47
2021/04/18 13:06:23;;;;;;;31.25;20.48;;;;;;;;;;5059902;28;20041;-48
2021/04/18 13:08:50;;;;;;;33.20;19.92;;;;;;;;;;5077793;28;20063;-47
2021/04/18 13:11:17;;;;;;;27.27;18.73;;;;;;;;;;5077066;28;20044;-50
2021/04/18 13:13:43;;;;;;;26.63;18.48;;;;;;;;;;5077853;28;20328;-47
2021/04/18 13:16:10;;;;;;;24.40;17.58;;;;;;;;;;5077875;28;20052;-47
2021/04/18 13:18:37;;;;;;;21.95;16.30;;;;;;;;;;5077629;28;20075;-49
2021/04/18 13:21:04;;;;;;;28.48;17.70;;;;;;;;;;5077744;28;20044;-47
2021/04/18 13:23:31;;;;;;;25.70;16.95;;;;;;;;;;5077604;28;20040;-48
2021/04/18 13:25:58;;;;;;;24.55;16.80;;;;;;;;;;5077647;28;20037;-46
2021/04/18 13:28:25;;;;;;;24.08;17.58;;;;;;;;;;5077446;28;20355;-48
2021/04/18 13:30:52;;;;;;;24.05;17.25;;;;;;;;;;5071275;28;20048;-50
2021/04/18 13:33:20;;;;;;;25.05;18.58;;;;;;;;;;5057364;28;20045;-49
2021/04/18 13:35:47;;;;;;;32.35;20.88;;;;;;;;;;5057514;28;20048;-48
2021/04/18 13:38:14;;;;;;;31.25;20.77;;;;;;;;;;5074307;28;20036;-46
2021/04/18 13:40:41;;;;;;;36.45;21.63;;;;;;;;;;5077446;28;20047;-47
2021/04/18 13:43:08;;;;;;;34.80;21.52;;;;;;;;;;5072285;28;20033;-51
2021/04/18 13:45:35;;;;;;;36.47;24.95;;;;;;;;;;5057362;28;20048;-46
2021/04/18 13:48:02;;;;;;;35.10;23.52;;;;;;;;;;5063840;28;20041;-48
2021/04/18 13:50:29;;;;;;;28.73;21.17;;;;;;;;;;5076106;28;20047;-46
2021/04/18 13:52:56;;;;;;;34.42;22.55;;;;;;;;;;5058063;28;20041;-47
2021/04/18 13:55:22;;;;;;;31.25;21.30;;;;;;;;;;5057130;28;20044;-46
2021/04/18 13:57:49;;;;;;;29.42;21.02;;;;;;;;;;5061704;28;20048;-47
2021/04/18 14:00:18;;;;;;;33.05;21.27;;;;;;;;;;5077061;28;20052;-47
2021/04/18 14:02:45;;;;;;;29.08;19.77;;;;;;;;;;5076859;28;20063;-47
2021/04/18 14:05:12;;;;;;;25.50;18.75;;;;;;;;;;5064678;28;20053;-46
2021/04/18 14:07:42;;;;;;;27.42;18.15;;;;;;;;;;5069172;28;20036;-48
2021/04/18 14:10:09;;;;;;;30.20;19.35;;;;;;;;;;5076848;28;20439;-48
2021/04/18 14:12:37;;;;;;;27.67;19.73;;;;;;;;;;5076815;28;20036;-47
2021/04/18 14:15:06;;;;;;;28.85;19.35;;;;;;;;;;5072845;28;20052;-53
2021/04/18 14:17:33;;;;;;;30.02;21.23;;;;;;;;;;5058440;28;20044;-47
2021/04/18 14:20:00;;;;;;;27.75;21.17;;;;;;;;;;5076543;28;20048;-49
2021/04/18 14:22:27;;;;;;;30.35;22.10;;;;;;;;;;5076317;28;20055;-50
2021/04/18 14:24:54;;;;;;;31.58;22.27;;;;;;;;;;5058289;28;20045;-47
2021/04/18 14:27:21;;;;;;;30.23;21.15;;;;;;;;;;5056461;28;20041;-47
2021/04/18 14:29:48;;;;;;;31.95;21.98;;;;;;;;;;5076230;28;20439;-47
2021/04/18 14:32:15;;;;;;;29.40;22.40;;;;;;;;;;5056435;28;20048;-47
2021/04/18 14:34:45;;;;;;;32.17;23.35;;;;;;;;;;5056713;28;20048;-48